Time;durP1;ratioP1;P1;durP2;ratioP2;P2;SDS_P1;SDS_P2;PMS_P1;PMS_P2;Temp;Humidity;BMP_temperature;BMP_pressure;BME280_temperature;BME280_humidity;BME280_pressure;Samples;Min_cycle;Max_cycle;Signal;HPM_P1;HPM_P2
2022/01/22 00:02:24;;;;;;;32.20;3.83;;;6.70;99.90;;;;;;4997462;28;20057;-70
2022/01/22 00:04:50;;;;;;;21.35;3.30;;;6.60;99.90;;;;;;4997952;28;20085;-68
2022/01/22 00:07:16;;;;;;;18.20;3.13;;;6.60;99.90;;;;;;4997300;28;20058;-70
2022/01/22 00:09:48;;;;;;;17.23;3.30;;;6.70;99.90;;;;;;4997446;28;20047;-69
2022/01/22 00:12:26;;;;;;;20.88;3.15;;;6.70;99.90;;;;;;5014822;28;20042;-70
2022/01/22 00:14:51;;;;;;;19.63;3.35;;;6.70;99.90;;;;;;4997660;28;20058;-67
2022/01/22 00:17:17;;;;;;;19.70;2.80;;;6.70;99.90;;;;;;4998982;28;20502;-69
2022/01/22 00:19:42;;;;;;;17.38;2.78;;;6.70;99.90;;;;;;5001006;28;20062;-69
2022/01/22 00:22:08;;;;;;;20.75;3.03;;;6.70;99.90;;;;;;5002016;28;20152;-70
2022/01/22 00:24:38;;;;;;;27.63;2.85;;;6.70;99.90;;;;;;5018288;28;20050;-69
2022/01/22 00:27:04;;;;;;;24.08;2.90;;;6.70;99.90;;;;;;5018517;28;20050;-70
2022/01/22 00:29:30;;;;;;;24.45;2.95;;;6.80;99.90;;;;;;5018363;28;20054;-69
2022/01/22 00:31:55;;;;;;;20.15;2.78;;;6.70;99.90;;;;;;5018344;28;20384;-69
2022/01/22 00:34:21;;;;;;;21.67;3.00;;;6.70;99.90;;;;;;5000899;28;20461;-67
2022/01/22 00:36:46;;;;;;;19.25;2.70;;;6.70;99.90;;;;;;5018431;28;20354;-68
2022/01/22 00:39:12;;;;;;;23.10;2.90;;;6.70;99.90;;;;;;5018502;28;20120;-69
2022/01/22 00:41:38;;;;;;;21.10;3.53;;;6.70;99.90;;;;;;5001317;28;20450;-69
2022/01/22 00:44:04;;;;;;;20.10;2.42;;;6.70;99.90;;;;;;5018130;28;20092;-68
2022/01/22 00:46:30;;;;;;;14.95;2.42;;;6.70;99.90;;;;;;5018245;28;20045;-68
2022/01/22 00:48:56;;;;;;;22.45;2.70;;;6.70;99.90;;;;;;5000130;28;20378;-70
2022/01/22 00:51:22;;;;;;;26.45;3.15;;;6.70;99.90;;;;;;5000998;28;20061;-68
2022/01/22 00:53:47;;;;;;;27.30;3.25;;;6.70;99.90;;;;;;5001491;28;20049;-70
2022/01/22 00:56:13;;;;;;;20.77;3.10;;;6.70;99.90;;;;;;5017545;28;20045;-69
2022/01/22 00:58:39;;;;;;;22.13;3.45;;;6.70;99.90;;;;;;5000899;28;20061;-70
2022/01/22 01:01:05;;;;;;;21.98;3.75;;;6.70;99.90;;;;;;5017830;28;20104;-69
2022/01/22 01:03:33;;;;;;;16.55;2.97;;;6.70;99.90;;;;;;5000348;28;20414;-67
2022/01/22 01:06:00;;;;;;;17.85;2.63;;;6.70;99.90;;;;;;5001136;28;20042;-68
2022/01/22 01:08:28;;;;;;;12.85;2.40;;;6.70;99.90;;;;;;4999631;28;20116;-70
2022/01/22 01:10:53;;;;;;;20.30;2.42;;;6.80;99.90;;;;;;5016418;28;20065;-70
2022/01/22 01:13:20;;;;;;;15.70;2.22;;;6.80;99.90;;;;;;5017440;28;20050;-68
2022/01/22 01:15:59;;;;;;;19.88;2.65;;;6.80;99.90;;;;;;5000092;28;20065;-67
2022/01/22 01:32:14;;;;;;;25.25;3.95;;;6.80;99.90;;;;;;5017168;28;20386;-68
2022/01/22 01:34:42;;;;;;;;;;;7.00;99.90;;;;;;4999966;28;20458;-68
2022/01/22 01:37:10;;;;;;;19.15;3.78;;;6.80;99.90;;;;;;5016966;28;20020;-67
2022/01/22 01:39:38;;;;;;;19.20;3.10;;;6.80;99.90;;;;;;5016919;28;20041;-69
2022/01/22 01:42:11;;;;;;;15.52;2.85;;;6.80;99.90;;;;;;4999934;28;20466;-68
2022/01/22 01:44:38;;;;;;;21.40;2.92;;;6.80;99.90;;;;;;4999696;28;20049;-69
2022/01/22 01:47:06;;;;;;;17.17;2.95;;;6.80;99.90;;;;;;4999939;28;20374;-70
2022/01/22 01:49:32;;;;;;;14.80;2.75;;;6.80;99.90;;;;;;5015470;28;20104;-68
2022/01/22 01:52:01;;;;;;;8.90;2.28;;;6.80;99.90;;;;;;4999373;28;20073;-69
2022/01/22 01:54:44;;;;;;;17.77;2.78;;;6.80;99.90;;;;;;4999172;28;20459;-68
2022/01/22 02:00:14;;;;;;;20.17;3.30;;;6.80;99.90;;;;;;4940516;29;19935;-68
2022/01/22 02:02:41;;;;;;;18.05;2.63;;;6.80;99.90;;;;;;4987889;28;20062;-70
2022/01/22 02:05:10;;;;;;;13.10;2.33;;;6.80;99.90;;;;;;4999790;28;20362;-70
2022/01/22 02:07:38;;;;;;;10.25;2.10;;;6.80;99.90;;;;;;4999680;28;20046;-70
2022/01/22 02:10:07;;;;;;;10.18;1.88;;;6.80;99.90;;;;;;5016430;28;20370;-68
2022/01/22 02:12:58;;;;;;;12.68;1.98;;;6.80;99.90;;;;;;4999562;28;20370;-68
2022/01/22 02:23:40;;;;;;;10.98;2.30;;;6.80;99.90;;;;;;5016097;28;20042;-69
2022/01/22 02:26:08;;;;;;;13.43;2.60;;;6.80;99.90;;;;;;4999185;28;20057;-68
2022/01/22 02:28:34;;;;;;;10.55;2.17;;;6.80;99.90;;;;;;5016206;28;20034;-68
2022/01/22 02:31:10;;;;;;;13.82;2.35;;;6.80;99.90;;;;;;4998387;28;20457;-67
2022/01/22 02:33:56;;;;;;;19.55;2.80;;;6.80;99.90;;;;;;5015859;28;20061;-69
2022/01/22 02:36:30;;;;;;;15.00;2.72;;;6.70;99.90;;;;;;5016318;28;20077;-68
2022/01/22 02:39:19;;;;;;;21.13;3.05;;;6.70;99.90;;;;;;5016135;28;20462;-69
2022/01/22 02:41:48;;;;;;;14.38;2.45;;;6.70;99.90;;;;;;4997584;28;20103;-71
2022/01/22 02:44:32;;;;;;;13.52;3.13;;;6.70;99.90;;;;;;5015664;28;20084;-68
2022/01/22 02:46:58;;;;;;;20.90;4.00;;;6.70;99.90;;;;;;5016169;28;20414;-70
2022/01/22 02:49:23;;;;;;;15.52;3.25;;;6.70;99.90;;;;;;5015968;28;20124;-71
2022/01/22 02:51:49;;;;;;;18.23;3.22;;;6.70;99.90;;;;;;5015233;28;20049;-69
2022/01/22 02:54:14;;;;;;;11.52;2.60;;;6.70;99.90;;;;;;4998254;28;20045;-70
2022/01/22 02:56:40;;;;;;;13.20;2.10;;;6.70;99.90;;;;;;5015609;28;20057;-70
2022/01/22 02:59:05;;;;;;;13.75;2.40;;;6.70;99.90;;;;;;4998965;28;20065;-71
2022/01/22 03:01:31;;;;;;;13.98;3.63;;;6.70;99.90;;;;;;5015642;28;20378;-70
2022/01/22 03:03:57;;;;;;;13.90;2.78;;;6.70;99.90;;;;;;4998060;28;20094;-71
2022/01/22 03:06:22;;;;;;;14.20;2.72;;;6.70;99.90;;;;;;5015733;28;20367;-70
2022/01/22 03:08:48;;;;;;;9.27;2.50;;;6.70;99.90;;;;;;5014835;28;20052;-72
2022/01/22 03:11:25;;;;;;;11.38;2.75;;;6.70;99.90;;;;;;5015597;28;20082;-72
2022/01/22 03:14:37;;;;;;;14.63;2.65;;;6.60;99.90;;;;;;4996034;28;20061;-70
2022/01/22 03:22:18;;;;;;;12.57;2.63;;;6.60;99.90;;;;;;5015239;28;20490;-72
2022/01/22 03:27:30;;;;;;;12.60;2.33;;;6.60;99.90;;;;;;5015024;28;20469;-70
2022/01/22 03:29:56;;;;;;;15.40;2.72;;;6.60;99.90;;;;;;4998687;28;20061;-71
2022/01/22 03:32:25;;;;;;;11.93;2.40;;;6.60;99.90;;;;;;4997902;28;20375;-72
2022/01/22 03:35:00;;;;;;;12.88;2.42;;;6.60;99.90;;;;;;5015165;28;20096;-72
2022/01/22 03:37:27;;;;;;;13.75;2.10;;;6.70;99.90;;;;;;4997670;28;20054;-70
2022/01/22 03:39:54;;;;;;;7.05;1.83;;;6.60;99.90;;;;;;4997770;28;20408;-70
2022/01/22 03:42:20;;;;;;;6.95;1.90;;;6.60;99.90;;;;;;5014956;28;20053;-72
2022/01/22 03:44:46;;;;;;;9.38;1.75;;;6.60;99.90;;;;;;4998089;28;20046;-70
2022/01/22 03:47:12;;;;;;;10.40;2.17;;;6.60;99.90;;;;;;5015344;28;20060;-70
2022/01/22 03:49:37;;;;;;;8.43;2.10;;;6.60;99.90;;;;;;5015142;28;20053;-70
2022/01/22 03:52:04;;;;;;;10.65;2.40;;;6.60;99.90;;;;;;4999266;28;20506;-70
2022/01/22 03:54:30;;;;;;;14.23;2.50;;;6.60;99.90;;;;;;5001706;28;20069;-70
2022/01/22 03:56:55;;;;;;;13.75;2.50;;;6.60;99.90;;;;;;5001700;28;20046;-70
2022/01/22 03:59:21;;;;;;;13.88;2.83;;;6.60;99.90;;;;;;5018933;28;20426;-73
2022/01/22 04:02:18;;;;;;;8.65;2.00;;;6.60;99.90;;;;;;5001605;28;20137;-71
2022/01/22 04:04:49;;;;;;;9.27;2.63;;;6.60;99.90;;;;;;5019253;28;20124;-69
2022/01/22 04:10:02;;;;;;;10.32;2.35;;;6.60;99.90;;;;;;5018830;28;20053;-71
2022/01/22 04:12:41;;;;;;;11.18;2.70;;;6.60;99.90;;;;;;5018115;28;20101;-70
2022/01/22 04:15:09;;;;;;;9.63;2.60;;;6.60;99.90;;;;;;5018664;28;20133;-71
2022/01/22 04:25:33;;;;;;;11.13;2.20;;;6.60;99.90;;;;;;5018686;28;20056;-71
2022/01/22 04:27:59;;;;;;;9.43;2.45;;;6.60;99.90;;;;;;5018315;28;20053;-71
2022/01/22 04:30:27;;;;;;;12.32;2.10;;;6.60;99.90;;;;;;5018299;28;20382;-71
2022/01/22 04:32:53;;;;;;;10.93;2.45;;;6.60;99.90;;;;;;5001269;28;20493;-71
2022/01/22 04:35:20;;;;;;;9.10;2.30;;;6.60;99.90;;;;;;5018285;28;20089;-72
2022/01/22 04:37:46;;;;;;;14.18;2.22;;;6.60;99.90;;;;;;5000667;28;20056;-71
2022/01/22 04:40:13;;;;;;;10.95;2.63;;;6.60;99.90;;;;;;5000982;28;20562;-72
2022/01/22 04:42:40;;;;;;;11.80;2.40;;;6.60;99.90;;;;;;5000461;28;20046;-70
2022/01/22 04:45:20;;;;;;;12.93;2.60;;;6.60;99.90;;;;;;5018531;28;20050;-70
2022/01/22 04:55:27;;;;;;;9.88;2.15;;;6.60;99.90;;;;;;5017687;28;20045;-71
2022/01/22 04:57:52;;;;;;;10.52;2.10;;;6.60;99.90;;;;;;5000387;28;20056;-70
2022/01/22 05:00:18;;;;;;;10.00;1.88;;;6.60;99.90;;;;;;5000849;28;20129;-72
2022/01/22 05:02:43;;;;;;;9.50;1.98;;;6.60;99.90;;;;;;5017715;28;20174;-69
2022/01/22 05:05:09;;;;;;;7.80;1.88;;;6.60;99.90;;;;;;4998124;28;20485;-71
2022/01/22 05:07:35;;;;;;;3.67;1.67;;;6.60;99.90;;;;;;5017410;28;20046;-70
2022/01/22 05:10:02;;;;;;;8.57;2.15;;;6.60;99.90;;;;;;5000270;28;20049;-70
2022/01/22 05:12:27;;;;;;;8.25;2.10;;;6.60;99.90;;;;;;5016898;28;20042;-69
2022/01/22 05:14:53;;;;;;;11.45;1.83;;;6.60;99.90;;;;;;5017454;28;20116;-67
2022/01/22 05:17:19;;;;;;;8.63;1.70;;;6.60;99.90;;;;;;5000250;28;20049;-69
2022/01/22 05:22:49;;;;;;;20.67;2.50;;;6.60;99.90;;;;;;4999671;28;20076;-68
2022/01/22 05:25:02;;;;;;;7.18;2.22;;;6.60;99.90;;;;;;5016824;28;20053;-69
2022/01/22 05:32:58;;;;;;;10.70;2.17;;;6.50;99.90;;;;;;5017084;28;20133;-68
2022/01/22 05:38:08;;;;;;;17.02;2.60;;;6.50;99.90;;;;;;5017308;28;20054;-67
2022/01/22 05:40:35;;;;;;;32.75;2.80;;;6.70;99.90;;;;;;5017320;28;20046;-69
2022/01/22 05:43:00;;;;;;;40.03;3.30;;;6.60;99.90;;;;;;5016669;28;20129;-69
2022/01/22 05:45:26;;;;;;;14.00;2.00;;;6.60;99.90;;;;;;5016810;28;20145;-68
2022/01/22 05:47:52;;;;;;;12.45;1.77;;;6.50;99.90;;;;;;5017602;28;20074;-69
2022/01/22 05:50:32;;;;;;;19.45;2.50;;;6.60;99.90;;;;;;5017147;28;20195;-67
2022/01/22 05:53:08;;;;;;;17.00;2.45;;;6.50;99.90;;;;;;4999573;28;20041;-68
2022/01/22 06:01:02;;;;;;;25.75;2.40;;;6.50;99.90;;;;;;5016756;28;20046;-68
2022/01/22 06:03:28;;;;;;;13.60;2.22;;;6.50;99.90;;;;;;5016171;28;20473;-67
2022/01/22 06:05:53;;;;;;;12.10;2.03;;;6.50;99.90;;;;;;5016501;28;20367;-68
2022/01/22 06:08:19;;;;;;;23.48;2.53;;;6.60;99.90;;;;;;5016186;28;20457;-69
2022/01/22 06:10:54;;;;;;;18.38;2.47;;;6.60;99.90;;;;;;5015751;28;20120;-69
2022/01/22 06:13:20;;;;;;;18.90;2.47;;;6.50;99.90;;;;;;5016002;28;20481;-68
2022/01/22 06:15:46;;;;;;;11.13;2.15;;;6.50;99.90;;;;;;4999050;28;20085;-67
2022/01/22 06:18:11;;;;;;;23.38;2.50;;;6.50;99.90;;;;;;4999038;28;20085;-69
2022/01/22 06:20:37;;;;;;;10.90;2.17;;;6.50;99.90;;;;;;4998865;28;20159;-70
2022/01/22 06:23:03;;;;;;;20.38;3.38;;;6.50;99.90;;;;;;4999551;28;20049;-69
2022/01/22 06:25:29;;;;;;;11.23;2.33;;;6.50;99.90;;;;;;4999646;28;20049;-68
2022/01/22 06:27:55;;;;;;;12.50;2.58;;;6.50;99.90;;;;;;5016214;28;20430;-69
2022/01/22 06:30:21;;;;;;;12.73;2.38;;;6.50;99.90;;;;;;5015813;28;20038;-68
2022/01/22 06:32:46;;;;;;;20.58;2.65;;;6.50;99.90;;;;;;5015602;28;20052;-70
2022/01/22 06:35:13;;;;;;;15.43;2.70;;;6.50;99.90;;;;;;5015997;28;20443;-71
2022/01/22 06:37:39;;;;;;;15.35;2.58;;;6.50;99.90;;;;;;4998785;28;20052;-70
2022/01/22 06:42:31;;;;;;;18.13;3.03;;;6.60;99.90;;;;;;4998559;28;20371;-71
2022/01/22 06:45:01;;;;;;;13.77;2.80;;;6.60;99.90;;;;;;5016013;28;20045;-72
2022/01/22 06:47:27;;;;;;;26.70;3.25;;;6.60;99.90;;;;;;5015812;28;20374;-71
2022/01/22 06:49:53;;;;;;;17.38;2.53;;;6.50;99.90;;;;;;5014729;28;20458;-69
2022/01/22 06:52:19;;;;;;;11.57;2.40;;;6.50;99.90;;;;;;5013733;28;20509;-71
2022/01/22 06:54:45;;;;;;;13.73;2.40;;;6.50;99.90;;;;;;4999088;28;20042;-69
2022/01/22 06:57:12;;;;;;;12.00;2.70;;;6.50;99.90;;;;;;4998173;28;20058;-71
2022/01/22 06:59:38;;;;;;;12.38;2.53;;;6.50;99.90;;;;;;5015871;28;20203;-71
2022/01/22 07:02:04;;;;;;;9.68;2.38;;;6.50;99.90;;;;;;4998514;28;20050;-70
2022/01/22 07:04:31;;;;;;;7.20;2.30;;;6.60;99.90;;;;;;4998283;28;20058;-71
2022/01/22 07:06:57;;;;;;;13.57;2.30;;;6.50;99.90;;;;;;5012640;28;20151;-70
2022/01/22 07:09:23;;;;;;;11.85;2.55;;;6.50;99.90;;;;;;5015270;28;20049;-71
2022/01/22 07:11:49;;;;;;;11.88;2.40;;;6.50;99.90;;;;;;4998287;28;20049;-71
2022/01/22 07:14:16;;;;;;;11.93;2.40;;;6.50;99.90;;;;;;5015798;28;20050;-72
2022/01/22 07:16:41;;;;;;;8.20;2.22;;;6.50;99.90;;;;;;4995248;28;20474;-71
2022/01/22 07:19:08;;;;;;;12.25;2.15;;;6.50;99.90;;;;;;4994712;28;20061;-71
2022/01/22 07:21:35;;;;;;;9.02;2.25;;;6.50;99.90;;;;;;4996897;28;20125;-68
2022/01/22 07:26:27;;;;;;;8.55;2.03;;;6.50;99.90;;;;;;4997046;28;20058;-69
2022/01/22 07:28:53;;;;;;;9.10;2.28;;;6.50;99.90;;;;;;4998094;28;20355;-71
2022/01/22 07:31:24;;;;;;;10.68;2.35;;;6.50;99.90;;;;;;4997913;28;20466;-70
2022/01/22 07:33:50;;;;;;;10.63;2.28;;;6.50;99.90;;;;;;4997493;28;20065;-71
2022/01/22 07:36:16;;;;;;;143.60;5.97;;;6.50;99.90;;;;;;4997796;28;20050;-70
2022/01/22 07:38:42;;;;;;;10.63;2.40;;;6.50;99.90;;;;;;4998037;28;20438;-68
2022/01/22 07:41:08;;;;;;;10.48;2.90;;;6.50;99.90;;;;;;5015352;28;20050;-70
2022/01/22 07:43:38;;;;;;;16.90;2.88;;;6.50;99.90;;;;;;4997643;28;20485;-72
2022/01/22 07:46:05;;;;;;;15.73;2.90;;;6.40;99.90;;;;;;4996644;28;20122;-72
2022/01/22 07:48:31;;;;;;;17.55;2.95;;;6.40;99.90;;;;;;5014857;28;20112;-71
2022/01/22 07:50:57;;;;;;;20.30;3.30;;;6.40;99.90;;;;;;5014967;28;20061;-71
2022/01/22 07:53:24;;;;;;;12.68;2.58;;;6.40;99.90;;;;;;5014896;28;20061;-71
2022/01/22 07:55:50;;;;;;;13.15;2.80;;;6.40;99.90;;;;;;5014721;28;20068;-70
2022/01/22 07:58:15;;;;;;;18.27;2.05;;;6.40;99.90;;;;;;5014857;28;20354;-70
2022/01/22 08:00:41;;;;;;;7.90;2.03;;;6.40;99.90;;;;;;4997193;28;20050;-69
2022/01/22 08:03:08;;;;;;;8.98;1.80;;;6.40;99.90;;;;;;4997666;28;20046;-70
2022/01/22 08:05:34;;;;;;;6.22;1.98;;;6.40;99.90;;;;;;5014921;28;20054;-70
2022/01/22 08:08:00;;;;;;;5.10;1.80;;;6.40;99.90;;;;;;4998046;28;20203;-71
2022/01/22 08:10:26;;;;;;;7.75;2.10;;;6.40;99.90;;;;;;4997644;28;20042;-71
2022/01/22 08:12:51;;;;;;;6.20;2.05;;;6.40;99.90;;;;;;5014797;28;20037;-71
2022/01/22 08:15:18;;;;;;;6.32;2.28;;;6.40;99.90;;;;;;4996838;28;20045;-71
2022/01/22 08:17:44;;;;;;;6.43;1.83;;;6.40;99.90;;;;;;5014529;28;20048;-70
2022/01/22 08:20:13;;;;;;;6.38;2.00;;;6.40;99.90;;;;;;5014903;28;20348;-69
2022/01/22 08:22:39;;;;;;;5.47;1.98;;;6.40;99.90;;;;;;4997523;28;20457;-71
2022/01/22 08:25:05;;;;;;;5.30;1.60;;;6.40;99.90;;;;;;5014837;28;20062;-71
2022/01/22 08:27:41;;;;;;;7.72;2.10;;;6.40;99.90;;;;;;5015245;28;20128;-71
2022/01/22 08:30:09;;;;;;;11.60;2.75;;;6.40;99.90;;;;;;4997656;28;20041;-71
2022/01/22 08:37:48;;;;;;;11.40;2.28;;;6.50;99.90;;;;;;5015486;28;20115;-70
2022/01/22 08:40:13;;;;;;;7.65;2.08;;;6.50;99.90;;;;;;5000627;28;20367;-71
2022/01/22 08:42:39;;;;;;;6.45;2.10;;;6.50;99.90;;;;;;5001098;28;20379;-70
2022/01/22 08:45:06;;;;;;;6.88;2.17;;;6.50;99.90;;;;;;5017207;28;20069;-70
2022/01/22 08:47:32;;;;;;;11.23;2.15;;;6.60;99.90;;;;;;5017870;28;20121;-71
2022/01/22 08:49:57;;;;;;;9.23;2.08;;;6.50;99.90;;;;;;5000578;28;20151;-71
2022/01/22 08:52:28;;;;;;;8.15;1.88;;;6.50;99.90;;;;;;5018043;28;20077;-70
2022/01/22 08:54:53;;;;;;;10.90;2.20;;;6.50;99.90;;;;;;5017785;28;20474;-72
2022/01/22 08:57:19;;;;;;;6.72;1.70;;;6.50;99.90;;;;;;5018107;28;20096;-73
2022/01/22 08:59:45;;;;;;;10.20;2.00;;;6.60;99.90;;;;;;5017797;28;20142;-70
2022/01/22 09:02:11;;;;;;;8.65;1.90;;;6.60;99.90;;;;;;5018028;28;20046;-70
2022/01/22 09:04:37;;;;;;;8.73;2.10;;;6.60;99.90;;;;;;4984294;28;20050;-70
2022/01/22 09:07:03;;;;;;;6.75;1.52;;;6.60;99.90;;;;;;5005540;28;20386;-71
2022/01/22 09:09:29;;;;;;;12.20;1.70;;;6.60;99.90;;;;;;5020658;28;20123;-72
2022/01/22 09:11:55;;;;;;;12.95;1.92;;;6.70;99.90;;;;;;4997328;28;20046;-72
2022/01/22 09:14:21;;;;;;;10.05;1.90;;;6.80;99.90;;;;;;5020286;28;20056;-70
2022/01/22 09:16:49;;;;;;;12.75;3.03;;;6.70;99.90;;;;;;5027557;28;20057;-70
2022/01/22 09:19:15;;;;;;;9.65;1.88;;;6.80;99.90;;;;;;5019046;28;20052;-70
2022/01/22 09:21:43;;;;;;;9.48;1.60;;;6.80;99.90;;;;;;5032559;28;20056;-71
2022/01/22 09:24:10;;;;;;;11.48;1.92;;;6.80;99.90;;;;;;5016980;28;20129;-71
2022/01/22 09:26:36;;;;;;;13.45;2.70;;;6.80;99.90;;;;;;5011816;28;20046;-71
2022/01/22 09:29:02;;;;;;;11.27;2.08;;;6.80;99.90;;;;;;5019365;28;20449;-71
2022/01/22 09:31:29;;;;;;;9.75;1.80;;;6.80;99.90;;;;;;5036715;28;20045;-70
2022/01/22 09:33:57;;;;;;;12.85;1.65;;;6.80;99.90;;;;;;5019284;28;20060;-69
2022/01/22 09:36:23;;;;;;;8.40;1.63;;;6.80;99.90;;;;;;5019143;28;20049;-70
2022/01/22 09:38:49;;;;;;;10.70;2.17;;;6.80;99.90;;;;;;5019267;28;20056;-70
2022/01/22 09:41:16;;;;;;;10.38;2.20;;;7.00;99.90;;;;;;5027556;28;20041;-70
2022/01/22 09:43:41;;;;;;;11.25;2.22;;;6.80;99.90;;;;;;5036840;28;20088;-69
2022/01/22 09:46:10;;;;;;;15.45;2.35;;;6.80;99.90;;;;;;5004576;28;20077;-71
2022/01/22 09:48:43;;;;;;;13.80;2.20;;;6.90;99.90;;;;;;5009578;28;20485;-73
2022/01/22 09:51:09;;;;;;;8.97;2.00;;;6.90;99.90;;;;;;5018400;28;20486;-72
2022/01/22 09:53:35;;;;;;;9.15;2.40;;;6.90;99.90;;;;;;5018861;28;20323;-71
2022/01/22 09:56:00;;;;;;;11.20;2.67;;;6.90;99.90;;;;;;5018973;28;20170;-70
2022/01/22 09:58:26;;;;;;;13.65;2.17;;;6.90;99.90;;;;;;5036088;28;20057;-70
2022/01/22 10:00:52;;;;;;;8.93;2.15;;;6.90;99.90;;;;;;5035818;28;20049;-71
2022/01/22 10:03:20;;;;;;;21.50;3.20;;;6.90;99.90;;;;;;5036366;28;20084;-71
2022/01/22 10:05:46;;;;;;;10.00;3.00;;;6.90;99.90;;;;;;5035917;28;20401;-71
2022/01/22 10:08:25;;;;;;;12.98;3.00;;;7.00;99.90;;;;;;5000667;28;20042;-70
2022/01/22 10:10:52;;;;;;;16.17;2.45;;;7.00;99.90;;;;;;4998918;28;20042;-71
2022/01/22 10:13:40;;;;;;;18.10;3.00;;;7.00;99.90;;;;;;5016523;28;20050;-71
2022/01/22 10:16:11;;;;;;;20.88;3.08;;;7.10;99.90;;;;;;5015563;28;20081;-70
2022/01/22 10:18:36;;;;;;;12.18;2.80;;;7.10;99.90;;;;;;5010185;28;20128;-71
2022/01/22 10:21:07;;;;;;;16.15;3.13;;;7.10;99.90;;;;;;5035258;28;20175;-71
2022/01/22 10:23:39;;;;;;;11.50;2.90;;;7.20;99.90;;;;;;5035338;28;20404;-70
2022/01/22 10:26:06;;;;;;;14.18;2.95;;;7.20;99.90;;;;;;5021109;28;20045;-70
2022/01/22 10:28:49;;;;;;;11.30;2.75;;;7.30;99.90;;;;;;5029846;28;20485;-70
2022/01/22 10:31:22;;;;;;;13.30;2.63;;;7.30;99.90;;;;;;5028491;28;20042;-70
2022/01/22 10:34:11;;;;;;;13.87;2.90;;;7.30;99.90;;;;;;5014370;28;20046;-70
2022/01/22 10:36:37;;;;;;;11.80;2.85;;;7.30;99.90;;;;;;4999205;28;20121;-70
2022/01/22 10:39:08;;;;;;;20.08;3.10;;;7.30;99.90;;;;;;5015740;28;20077;-69
2022/01/22 10:41:39;;;;;;;12.05;2.75;;;7.40;99.90;;;;;;5016158;28;20115;-71
2022/01/22 10:44:09;;;;;;;16.20;3.08;;;7.40;99.90;;;;;;5013104;28;20105;-68
2022/01/22 10:46:48;;;;;;;11.82;2.65;;;7.40;99.90;;;;;;5021634;28;20439;-69
2022/01/22 10:49:25;;;;;;;11.50;2.85;;;7.40;99.90;;;;;;5018032;28;20041;-70
2022/01/22 10:51:53;;;;;;;19.50;2.72;;;7.50;99.90;;;;;;5034975;28;20052;-72
2022/01/22 10:54:23;;;;;;;11.52;3.33;;;7.40;99.90;;;;;;5035699;28;20049;-71
2022/01/22 10:56:50;;;;;;;7.90;2.20;;;7.40;99.90;;;;;;5035038;28;20072;-71
2022/01/22 10:59:21;;;;;;;7.18;2.13;;;7.40;99.90;;;;;;5034931;28;20053;-71
2022/01/22 11:01:53;;;;;;;9.15;2.58;;;7.40;99.90;;;;;;5034591;28;20366;-71
2022/01/22 11:04:22;;;;;;;9.52;2.60;;;7.40;99.90;;;;;;5011132;28;20045;-70
2022/01/22 11:07:19;;;;;;;13.25;2.92;;;7.40;99.90;;;;;;5015076;28;20117;-70
2022/01/22 11:09:45;;;;;;;7.57;2.70;;;7.40;99.90;;;;;;5005806;28;20089;-70
2022/01/22 11:12:11;;;;;;;16.42;4.10;;;7.40;99.90;;;;;;5016513;28;20041;-71
2022/01/22 11:14:38;;;;;;;13.02;2.90;;;7.40;99.90;;;;;;5028581;28;20042;-71
2022/01/22 11:17:06;;;;;;;11.20;2.67;;;7.40;99.90;;;;;;5014941;28;20053;-72
2022/01/22 11:19:33;;;;;;;12.18;3.00;;;7.40;99.90;;;;;;5015071;28;20103;-70
2022/01/22 11:22:10;;;;;;;11.05;3.13;;;7.40;99.90;;;;;;5012807;28;20053;-70
2022/01/22 11:24:47;;;;;;;15.70;3.28;;;7.40;99.90;;;;;;5002226;28;20050;-71
2022/01/22 11:27:21;;;;;;;10.18;3.83;;;7.40;99.90;;;;;;4997601;28;20053;-70
2022/01/22 11:29:51;;;;;;;8.88;4.57;;;7.40;99.90;;;;;;5014568;28;20045;-71
2022/01/22 11:32:20;;;;;;;16.17;4.78;;;7.40;99.90;;;;;;5014682;28;20042;-71
2022/01/22 11:34:48;;;;;;;14.57;3.72;;;7.40;99.90;;;;;;5014754;28;20046;-72
2022/01/22 11:37:50;;;;;;;18.88;4.20;;;7.40;99.90;;;;;;5008574;28;20046;-70
2022/01/22 11:40:17;;;;;;;16.95;6.43;;;7.40;99.90;;;;;;5017396;28;20108;-70
2022/01/22 11:43:07;;;;;;;14.18;5.05;;;7.40;99.90;;;;;;5014857;28;20466;-70
2022/01/22 11:45:50;;;;;;;17.40;5.50;;;7.40;99.90;;;;;;4997877;28;20125;-72
2022/01/22 11:48:23;;;;;;;13.52;4.32;;;7.40;99.90;;;;;;5001017;28;20129;-70
2022/01/22 11:50:55;;;;;;;19.55;4.85;;;7.30;99.90;;;;;;4997317;28;20042;-71
2022/01/22 11:53:29;;;;;;;14.55;5.05;;;7.30;99.90;;;;;;5015025;28;20065;-72
2022/01/22 11:56:10;;;;;;;;;;;7.30;99.90;;;;;;5018424;28;20117;-72
2022/01/22 11:58:58;;;;;;;17.90;4.40;;;7.30;99.90;;;;;;5012299;28;19931;-72
2022/01/22 12:01:51;;;;;;;18.52;4.75;;;7.30;99.90;;;;;;5014407;28;20056;-71
2022/01/22 12:04:21;;;;;;;26.23;5.22;;;7.30;99.90;;;;;;5009609;28;20050;-72
2022/01/22 12:07:02;;;;;;;22.35;5.40;;;7.30;99.90;;;;;;5007809;28;20049;-70
2022/01/22 12:15:25;;;;;;;21.27;5.22;;;7.30;99.90;;;;;;5006300;28;20058;-69
2022/01/22 12:17:57;;;;;;;16.35;5.18;;;7.30;99.90;;;;;;5001339;28;20066;-71
2022/01/22 12:23:03;;;;;;;18.98;5.38;;;7.30;99.90;;;;;;5018293;28;20062;-71
2022/01/22 12:25:29;;;;;;;22.58;5.68;;;7.30;99.90;;;;;;5009202;28;20049;-72
2022/01/22 12:27:57;;;;;;;21.17;5.22;;;7.30;99.90;;;;;;5037708;28;20064;-70
2022/01/22 12:30:44;;;;;;;17.10;5.00;;;7.30;99.90;;;;;;5037885;28;20064;-70
2022/01/22 12:33:29;;;;;;;22.52;6.60;;;7.30;99.90;;;;;;5020901;28;20061;-70
2022/01/22 12:36:04;;;;;;;23.92;6.55;;;7.30;99.90;;;;;;5035654;28;20104;-72
2022/01/22 12:38:54;;;;;;;16.90;7.13;;;7.30;99.90;;;;;;5005466;28;20115;-72
2022/01/22 12:41:34;;;;;;;16.83;6.75;;;7.30;99.90;;;;;;5016960;28;20112;-71
2022/01/22 12:44:35;;;;;;;20.20;8.25;;;7.30;99.90;;;;;;5017697;28;20061;-70
2022/01/22 12:47:11;;;;;;;25.25;9.02;;;7.30;99.90;;;;;;5000501;28;20103;-71
2022/01/22 12:49:38;;;;;;;27.95;11.55;;;7.30;99.90;;;;;;5007199;28;20164;-72
2022/01/22 12:52:07;;;;;;;19.73;5.88;;;7.20;99.90;;;;;;5020101;28;20049;-71
2022/01/22 12:54:39;;;;;;;16.15;5.70;;;7.20;99.90;;;;;;5020263;28;20060;-71
2022/01/22 12:57:08;;;;;;;20.65;5.65;;;7.20;99.90;;;;;;5019723;28;20127;-70
2022/01/22 12:59:50;;;;;;;17.42;5.40;;;7.20;99.90;;;;;;5037263;28;20115;-71
2022/01/22 13:02:18;;;;;;;18.30;4.93;;;7.10;99.90;;;;;;5003742;28;20124;-71
2022/01/22 13:04:57;;;;;;;13.95;5.20;;;7.10;99.90;;;;;;5019850;28;20052;-71
2022/01/22 13:07:25;;;;;;;18.77;6.18;;;7.10;99.90;;;;;;5030643;28;20049;-73
2022/01/22 13:09:54;;;;;;;20.45;5.32;;;7.10;99.90;;;;;;5000049;28;20085;-71
2022/01/22 13:12:20;;;;;;;16.45;5.53;;;7.20;99.90;;;;;;5014593;28;20077;-73
2022/01/22 13:14:46;;;;;;;20.77;5.18;;;7.20;99.90;;;;;;5016845;28;20350;-71
2022/01/22 13:17:13;;;;;;;18.15;5.45;;;7.20;99.90;;;;;;5022171;28;20121;-71
2022/01/22 13:19:40;;;;;;;25.58;5.43;;;7.30;99.90;;;;;;5016886;28;20382;-72
2022/01/22 13:22:06;;;;;;;21.23;5.40;;;7.30;99.90;;;;;;5016403;28;20390;-72
2022/01/22 13:24:32;;;;;;;14.90;4.43;;;7.30;99.90;;;;;;4999632;28;20049;-72
2022/01/22 13:27:12;;;;;;;22.10;5.20;;;7.40;99.90;;;;;;5016145;28;20370;-73
2022/01/22 13:29:53;;;;;;;18.80;4.85;;;7.40;99.90;;;;;;5014947;28;20060;-67
2022/01/22 13:32:44;;;;;;;14.95;4.55;;;7.40;99.90;;;;;;5036647;28;20112;-72
2022/01/22 13:40:48;;;;;;;14.73;4.22;;;7.40;99.90;;;;;;5017078;28;20064;-71
2022/01/22 13:49:05;;;;;;;13.00;3.17;;;7.30;99.90;;;;;;4993447;28;20394;-71
2022/01/22 13:51:32;;;;;;;9.10;2.83;;;7.40;99.90;;;;;;5019698;28;20049;-70
2022/01/22 13:54:01;;;;;;;11.85;3.05;;;7.30;99.90;;;;;;4998890;28;20054;-70
2022/01/22 13:56:53;;;;;;;7.95;2.13;;;7.30;99.90;;;;;;4999829;28;20046;-71
2022/01/22 13:59:23;;;;;;;89.20;7.75;;;7.30;99.90;;;;;;5002031;28;20053;-71
2022/01/22 14:02:35;;;;;;;13.20;2.38;;;7.30;99.90;;;;;;5036311;28;20060;-71
2022/01/22 14:04:44;;;;;;;7.95;2.03;;;7.20;99.90;;;;;;5015283;28;20064;-70
2022/01/22 14:07:30;;;;;;;10.77;2.33;;;7.20;99.90;;;;;;5033980;28;20037;-70
2022/01/22 14:10:03;;;;;;;12.73;2.55;;;7.10;99.90;;;;;;5019058;28;20096;-71
2022/01/22 14:12:42;;;;;;;8.15;2.22;;;7.10;99.90;;;;;;4987212;28;20042;-72
2022/01/22 14:15:13;;;;;;;15.55;2.80;;;7.10;99.90;;;;;;5015857;28;20137;-72
2022/01/22 14:18:05;;;;;;;11.55;2.70;;;7.10;99.90;;;;;;4998526;28;20064;-72
2022/01/22 14:20:31;;;;;;;14.15;2.55;;;7.10;99.90;;;;;;5015867;28;20386;-73
2022/01/22 14:23:06;;;;;;;13.45;2.60;;;7.10;99.90;;;;;;4996249;28;20057;-70
2022/01/22 14:25:34;;;;;;;11.57;2.88;;;7.10;99.90;;;;;;5016233;28;20045;-72
2022/01/22 14:28:12;;;;;;;12.88;3.00;;;7.10;99.90;;;;;;4997262;28;20064;-72
2022/01/22 14:30:46;;;;;;;6.65;2.70;;;7.10;99.90;;;;;;5013919;28;20053;-68
2022/01/22 14:33:14;;;;;;;11.93;3.03;;;7.10;99.90;;;;;;4999205;28;20057;-71
2022/01/22 14:35:42;;;;;;;14.48;3.20;;;7.10;99.90;;;;;;5022314;28;20045;-70
2022/01/22 14:38:20;;;;;;;12.10;3.28;;;7.10;99.90;;;;;;5014943;28;20045;-70
2022/01/22 14:44:05;;;;;;;10.00;2.88;;;7.10;99.90;;;;;;5015966;28;20448;-71
2022/01/22 14:46:41;;;;;;;12.35;2.55;;;7.00;99.90;;;;;;5014472;28;20045;-69